createdAt,value
2022-10-30T00:00:17.903Z,99.90
2022-10-30T00:03:06.252Z,99.90
2022-10-30T00:05:34.217Z,99.90
2022-10-30T00:08:02.032Z,99.90
2022-10-30T00:10:29.828Z,99.90
2022-10-30T00:12:58.246Z,99.90
2022-10-30T00:15:46.457Z,99.90
2022-10-30T00:18:15.027Z,99.90
2022-10-30T00:20:42.688Z,99.90
2022-10-30T00:23:25.356Z,99.90
2022-10-30T00:25:53.369Z,99.90
2022-10-30T00:28:21.178Z,99.90
2022-10-30T00:30:48.966Z,99.90
2022-10-30T00:33:17.014Z,99.90
2022-10-30T00:36:00.165Z,99.90
2022-10-30T00:38:28.427Z,99.90
2022-10-30T00:40:56.039Z,99.90
2022-10-30T00:43:41.452Z,99.90
2022-10-30T00:46:26.715Z,99.90
2022-10-30T00:49:20.049Z,99.90
2022-10-30T00:51:52.224Z,99.90
2022-10-30T00:54:22.071Z,99.90
2022-10-30T00:56:54.192Z,99.90
2022-10-30T00:59:31.121Z,99.90
2022-10-30T01:02:14.117Z,99.90
2022-10-30T01:04:45.089Z,99.90
2022-10-30T01:07:16.635Z,99.90
2022-10-30T01:09:47.103Z,99.90
2022-10-30T01:12:16.041Z,99.90
2022-10-30T01:14:56.552Z,99.90
2022-10-30T01:17:33.968Z,99.80
2022-10-30T01:20:22.645Z,99.70
2022-10-30T01:23:05.908Z,99.90
2022-10-30T01:25:42.839Z,99.80
2022-10-30T01:28:50.761Z,99.80
2022-10-30T01:31:44.467Z,99.60
2022-10-30T01:34:31.452Z,99.80
2022-10-30T01:37:25.503Z,99.70
2022-10-30T01:39:53.982Z,99.70
2022-10-30T01:42:48.540Z,99.70
2022-10-30T01:45:59.133Z,99.60
2022-10-30T01:48:45.128Z,99.70
2022-10-30T01:51:42.153Z,99.70
2022-10-30T01:54:21.799Z,99.60
2022-10-30T01:57:23.176Z,99.70
2022-10-30T02:00:09.403Z,99.60
2022-10-30T02:02:50.269Z,99.60
2022-10-30T02:05:43.415Z,99.60
2022-10-30T02:08:11.941Z,99.60
2022-10-30T02:10:42.696Z,99.50
2022-10-30T02:13:26.744Z,99.50
2022-10-30T02:15:56.384Z,99.50
2022-10-30T02:18:25.280Z,99.60
2022-10-30T02:20:53.035Z,99.60
2022-10-30T02:23:22.596Z,99.50
2022-10-30T02:25:51.342Z,99.50
2022-10-30T02:28:19.252Z,99.40
2022-10-30T02:30:47.413Z,99.50
2022-10-30T02:33:30.365Z,99.50
2022-10-30T02:35:58.568Z,99.50
2022-10-30T02:38:26.209Z,99.50
2022-10-30T02:40:53.853Z,99.50
2022-10-30T02:43:21.819Z,99.60
2022-10-30T02:45:52.615Z,99.60
2022-10-30T02:48:20.665Z,99.60
2022-10-30T02:50:49.321Z,99.60
2022-10-30T02:53:17.529Z,99.60
2022-10-30T02:55:46.210Z,99.60
2022-10-30T02:58:29.003Z,99.60
2022-10-30T03:00:56.968Z,99.60
2022-10-30T03:03:24.669Z,99.60
2022-10-30T03:06:10.964Z,99.60
2022-10-30T03:08:39.524Z,99.70
2022-10-30T03:11:13.254Z,99.70
2022-10-30T03:13:42.691Z,99.70
2022-10-30T03:16:14.785Z,99.80
2022-10-30T03:18:43.390Z,99.80
2022-10-30T03:21:28.562Z,99.80
2022-10-30T03:23:56.835Z,99.80
2022-10-30T03:26:24.708Z,99.90
2022-10-30T03:28:57.242Z,99.90
2022-10-30T03:31:40.016Z,99.90
2022-10-30T03:34:35.639Z,99.90
2022-10-30T03:37:07.331Z,99.90
2022-10-30T03:39:50.411Z,99.90
2022-10-30T03:42:21.769Z,99.90
2022-10-30T03:44:51.419Z,99.90
2022-10-30T03:47:19.217Z,99.90
2022-10-30T03:49:47.506Z,99.90
2022-10-30T03:52:19.675Z,99.90
2022-10-30T03:54:49.751Z,99.90
2022-10-30T03:57:19.241Z,99.90
2022-10-30T04:00:07.161Z,99.90
2022-10-30T04:02:55.066Z,99.90
2022-10-30T04:05:25.531Z,99.90
2022-10-30T04:08:14.782Z,99.90
2022-10-30T04:10:47.563Z,99.90
2022-10-30T04:13:17.178Z,99.90
2022-10-30T04:15:56.000Z,99.90
2022-10-30T04:18:26.294Z,99.90
2022-10-30T04:20:55.433Z,99.90
2022-10-30T04:23:23.488Z,99.90
2022-10-30T04:25:51.166Z,99.90
2022-10-30T04:28:21.466Z,99.90
2022-10-30T04:30:49.347Z,99.90
2022-10-30T04:33:18.221Z,99.90
2022-10-30T04:35:46.949Z,99.90
2022-10-30T04:38:20.727Z,99.90
2022-10-30T04:40:49.789Z,99.90
2022-10-30T04:43:18.313Z,99.90
2022-10-30T04:45:50.163Z,99.90
2022-10-30T04:48:19.017Z,99.90
2022-10-30T04:50:50.506Z,99.90
2022-10-30T04:53:26.541Z,99.90
2022-10-30T04:56:01.460Z,99.90
2022-10-30T04:58:44.964Z,99.90
2022-10-30T05:01:13.272Z,99.90
2022-10-30T05:03:41.168Z,99.90
2022-10-30T05:06:26.742Z,99.90
2022-10-30T05:08:56.017Z,99.90
2022-10-30T05:11:36.472Z,99.90
2022-10-30T05:14:04.196Z,99.90
2022-10-30T05:16:32.288Z,99.90
2022-10-30T05:19:01.830Z,99.90
2022-10-30T05:21:30.461Z,99.90
2022-10-30T05:23:59.448Z,99.90
2022-10-30T05:26:29.173Z,99.90
2022-10-30T05:28:56.847Z,99.90
2022-10-30T05:31:24.668Z,99.90
2022-10-30T05:34:28.533Z,99.90
2022-10-30T05:36:56.197Z,99.90
2022-10-30T05:39:23.940Z,99.90
2022-10-30T05:41:53.000Z,99.90
2022-10-30T05:44:40.447Z,99.90
2022-10-30T05:47:11.070Z,99.90
2022-10-30T05:49:54.923Z,99.90
2022-10-30T05:52:26.194Z,99.90
2022-10-30T05:54:53.951Z,99.90
2022-10-30T05:57:41.961Z,99.90
2022-10-30T06:00:26.044Z,99.90
2022-10-30T06:03:03.451Z,99.90
2022-10-30T06:05:48.598Z,99.90
2022-10-30T06:08:17.610Z,99.90
2022-10-30T06:10:47.126Z,99.90
2022-10-30T06:13:25.378Z,99.90
2022-10-30T06:16:03.710Z,99.90
2022-10-30T06:18:51.239Z,99.90
2022-10-30T06:21:19.277Z,99.90
2022-10-30T06:23:52.553Z,99.90
2022-10-30T06:26:38.962Z,99.90
2022-10-30T06:29:11.096Z,99.90
2022-10-30T06:31:38.870Z,99.90
2022-10-30T06:34:07.192Z,99.90
2022-10-30T06:36:37.642Z,99.90
2022-10-30T06:39:05.969Z,99.90
2022-10-30T06:41:56.169Z,99.90
2022-10-30T06:45:00.472Z,99.90
2022-10-30T06:47:29.040Z,99.90
2022-10-30T06:49:56.875Z,99.90
2022-10-30T06:52:24.704Z,99.90
2022-10-30T06:54:54.879Z,99.90
2022-10-30T06:58:01.629Z,99.90
2022-10-30T07:00:40.744Z,99.90
2022-10-30T07:03:32.083Z,99.90
2022-10-30T07:06:00.788Z,99.90
2022-10-30T07:08:28.666Z,99.90
2022-10-30T07:10:58.854Z,99.90
2022-10-30T07:13:26.815Z,99.90
2022-10-30T07:16:14.980Z,99.90
2022-10-30T07:18:45.837Z,99.90
2022-10-30T07:21:28.786Z,99.90
2022-10-30T07:24:11.880Z,99.90
2022-10-30T07:26:56.113Z,99.90
2022-10-30T07:29:50.131Z,99.90
2022-10-30T07:32:34.207Z,99.90
2022-10-30T07:35:37.019Z,99.90
2022-10-30T07:38:32.179Z,99.90
2022-10-30T07:41:25.994Z,99.90
2022-10-30T07:44:13.938Z,99.90
2022-10-30T07:47:12.212Z,99.90
2022-10-30T07:49:56.303Z,99.90
2022-10-30T07:52:23.984Z,99.90
2022-10-30T07:54:53.193Z,99.90
2022-10-30T07:58:14.511Z,99.90
2022-10-30T08:01:03.754Z,99.90
2022-10-30T08:03:33.926Z,99.90
2022-10-30T08:06:30.142Z,99.90
2022-10-30T08:08:58.188Z,99.90
2022-10-30T08:11:29.884Z,99.90
2022-10-30T08:14:00.465Z,99.90
2022-10-30T08:16:43.302Z,99.90
2022-10-30T08:19:11.303Z,99.90
2022-10-30T08:21:39.292Z,99.90
2022-10-30T08:24:12.356Z,99.90
2022-10-30T08:26:42.779Z,99.90
2022-10-30T08:29:12.731Z,99.90
2022-10-30T08:31:41.828Z,99.90
2022-10-30T08:34:40.476Z,99.90
2022-10-30T08:37:08.532Z,99.90
2022-10-30T08:39:36.307Z,99.90
2022-10-30T08:42:23.050Z,99.90
2022-10-30T08:44:51.148Z,99.90
2022-10-30T08:47:19.139Z,99.90
2022-10-30T08:49:47.564Z,99.90
2022-10-30T08:52:18.782Z,99.90
2022-10-30T08:55:06.410Z,99.90
2022-10-30T08:57:38.148Z,99.90
2022-10-30T09:00:07.059Z,99.90
2022-10-30T09:02:57.080Z,99.90
2022-10-30T09:06:01.339Z,99.90
2022-10-30T09:09:01.950Z,99.90
2022-10-30T09:11:56.348Z,99.90
2022-10-30T09:14:24.376Z,99.90
2022-10-30T09:16:52.193Z,99.90
2022-10-30T09:19:37.102Z,99.90
2022-10-30T09:22:06.455Z,99.90
2022-10-30T09:24:40.232Z,99.90
2022-10-30T09:27:39.102Z,99.90
2022-10-30T09:30:23.348Z,99.90
2022-10-30T09:33:02.965Z,99.90
2022-10-30T09:35:53.596Z,99.90
2022-10-30T09:38:21.598Z,99.90
2022-10-30T09:41:10.673Z,99.90
2022-10-30T09:43:51.848Z,99.90
2022-10-30T09:46:41.712Z,99.90
2022-10-30T09:49:28.150Z,99.90
2022-10-30T09:52:28.581Z,99.90
2022-10-30T09:55:04.577Z,99.70
2022-10-30T09:58:21.126Z,99.30
2022-10-30T10:01:07.002Z,99.30
2022-10-30T10:03:58.377Z,99.40
2022-10-30T10:06:48.040Z,98.70
2022-10-30T10:09:53.018Z,98.80
2022-10-30T10:12:51.143Z,98.70
2022-10-30T10:15:27.199Z,98.70
2022-10-30T10:17:56.524Z,98.50
2022-10-30T10:20:41.503Z,98.30
2022-10-30T10:23:36.111Z,98.60
2022-10-30T10:26:21.886Z,98.70
2022-10-30T10:29:22.885Z,98.80
2022-10-30T10:32:28.798Z,98.70
2022-10-30T10:35:08.263Z,98.40
2022-10-30T10:38:00.733Z,98.40
2022-10-30T10:40:40.767Z,98.10
2022-10-30T10:43:23.299Z,98.20
2022-10-30T10:46:03.488Z,98.50
2022-10-30T10:48:58.634Z,98.20
2022-10-30T10:51:47.804Z,98.10
2022-10-30T10:54:37.040Z,98.00
2022-10-30T10:57:08.000Z,98.00
2022-10-30T10:59:41.458Z,98.00
2022-10-30T11:02:09.549Z,98.20
2022-10-30T11:04:41.757Z,98.10
2022-10-30T11:07:30.995Z,97.90
2022-10-30T11:09:58.907Z,98.00
2022-10-30T11:12:42.582Z,98.10
2022-10-30T11:15:29.011Z,98.10
2022-10-30T11:18:02.342Z,98.10
2022-10-30T11:20:44.675Z,98.20
2022-10-30T11:23:45.064Z,98.00
2022-10-30T11:26:19.486Z,97.90
2022-10-30T11:29:13.864Z,97.70
2022-10-30T11:31:46.146Z,97.80
2022-10-30T11:34:18.015Z,97.70
2022-10-30T11:36:49.178Z,97.70
2022-10-30T11:39:24.513Z,97.50
2022-10-30T11:41:58.528Z,97.40
2022-10-30T11:44:33.849Z,97.70
2022-10-30T11:47:02.986Z,97.70
2022-10-30T11:49:31.183Z,97.80
2022-10-30T11:51:59.798Z,97.60
2022-10-30T11:54:30.636Z,97.80
2022-10-30T11:56:59.546Z,97.70
2022-10-30T11:59:27.437Z,97.80
2022-10-30T12:02:04.489Z,97.80
2022-10-30T12:04:47.348Z,97.80
2022-10-30T12:07:30.330Z,97.20
2022-10-30T12:09:59.886Z,96.10
2022-10-30T12:12:39.700Z,96.10
2022-10-30T12:15:13.636Z,95.00
2022-10-30T12:17:50.720Z,94.10
2022-10-30T12:20:18.591Z,94.70
2022-10-30T12:22:47.448Z,94.60
2022-10-30T12:25:31.937Z,94.80
2022-10-30T12:28:17.062Z,94.50
2022-10-30T12:30:57.341Z,94.30
2022-10-30T12:33:33.139Z,94.40
2022-10-30T12:36:06.296Z,94.80
2022-10-30T12:38:45.392Z,94.70
2022-10-30T12:41:45.692Z,94.50
2022-10-30T12:44:16.671Z,94.40
2022-10-30T12:46:51.154Z,94.20
2022-10-30T12:49:57.044Z,94.20
2022-10-30T12:52:33.738Z,93.40
2022-10-30T12:55:21.766Z,94.00
2022-10-30T12:58:01.657Z,94.00
2022-10-30T13:00:33.360Z,94.10
2022-10-30T13:03:08.658Z,93.90
2022-10-30T13:05:40.438Z,93.80
2022-10-30T13:08:36.852Z,93.50
2022-10-30T13:11:28.102Z,93.20
2022-10-30T13:13:59.696Z,92.80
2022-10-30T13:16:32.157Z,93.50
2022-10-30T13:19:01.599Z,93.30
2022-10-30T13:21:47.933Z,93.60
2022-10-30T13:24:41.587Z,93.60
2022-10-30T13:27:18.212Z,94.00
2022-10-30T13:29:57.789Z,94.00
2022-10-30T13:32:31.190Z,94.10
2022-10-30T13:35:18.253Z,94.00
2022-10-30T13:37:50.213Z,93.90
2022-10-30T13:40:59.254Z,93.70
2022-10-30T13:44:04.771Z,94.00
2022-10-30T13:46:56.264Z,93.60
2022-10-30T13:49:48.647Z,93.90
2022-10-30T13:52:21.468Z,93.90
2022-10-30T13:55:26.765Z,94.20
2022-10-30T13:58:09.369Z,94.20
2022-10-30T14:01:16.997Z,94.50
2022-10-30T14:03:57.005Z,94.40
2022-10-30T14:06:51.794Z,94.50
2022-10-30T14:09:43.574Z,94.60
2022-10-30T14:12:49.808Z,94.40
2022-10-30T14:15:57.353Z,94.40
2022-10-30T14:18:27.961Z,94.30
2022-10-30T14:20:58.089Z,94.60
2022-10-30T14:23:36.813Z,94.70
2022-10-30T14:26:04.570Z,94.80
2022-10-30T14:28:37.752Z,95.00
2022-10-30T14:31:17.784Z,95.20
2022-10-30T14:33:53.395Z,95.40
2022-10-30T14:36:39.116Z,95.60
2022-10-30T14:39:09.651Z,95.70
2022-10-30T14:41:58.819Z,95.80
2022-10-30T14:44:59.689Z,95.90
2022-10-30T14:47:42.298Z,96.00
2022-10-30T14:50:34.339Z,96.10
2022-10-30T14:53:18.467Z,96.30
2022-10-30T14:56:07.384Z,96.40
2022-10-30T14:58:38.038Z,96.40
2022-10-30T15:01:30.809Z,96.60
2022-10-30T15:04:10.177Z,96.70
2022-10-30T15:06:59.455Z,96.70
2022-10-30T15:09:48.961Z,96.80
2022-10-30T15:12:37.889Z,96.90
2022-10-30T15:15:20.697Z,97.00
2022-10-30T15:17:55.415Z,97.00
2022-10-30T15:20:39.751Z,97.20
2022-10-30T15:23:28.075Z,97.20
2022-10-30T15:26:22.430Z,97.50
2022-10-30T15:28:52.013Z,97.50
2022-10-30T15:31:34.854Z,97.60
2022-10-30T15:34:23.814Z,97.80
2022-10-30T15:36:51.794Z,97.90
2022-10-30T15:39:22.325Z,97.90
2022-10-30T15:42:00.111Z,98.00
2022-10-30T15:44:45.815Z,98.10
2022-10-30T15:47:15.962Z,98.20
2022-10-30T15:49:54.537Z,98.40
2022-10-30T15:52:37.566Z,98.40
2022-10-30T15:55:13.617Z,98.40
2022-10-30T15:58:12.900Z,98.40
2022-10-30T16:00:41.311Z,98.40
2022-10-30T16:03:24.109Z,98.40
2022-10-30T16:06:18.163Z,98.50
2022-10-30T16:08:47.953Z,98.60
2022-10-30T16:11:16.777Z,98.60
2022-10-30T16:13:44.771Z,98.60
2022-10-30T16:16:30.910Z,98.70
2022-10-30T16:19:02.327Z,98.70
2022-10-30T16:21:31.414Z,98.60
2022-10-30T16:24:02.898Z,98.70
2022-10-30T16:26:33.157Z,98.80
2022-10-30T16:29:13.487Z,98.90
2022-10-30T16:31:44.432Z,99.20
2022-10-30T16:34:19.416Z,99.30
2022-10-30T16:36:47.567Z,99.40
2022-10-30T16:39:17.527Z,99.40
2022-10-30T16:42:01.371Z,99.50
2022-10-30T16:44:34.298Z,99.60
2022-10-30T16:47:17.104Z,99.60
2022-10-30T16:49:57.598Z,99.70
2022-10-30T16:52:32.895Z,99.70
2022-10-30T16:55:05.219Z,99.80
2022-10-30T16:57:41.709Z,99.70
2022-10-30T17:00:25.785Z,99.70
2022-10-30T17:02:57.944Z,99.70
2022-10-30T17:05:34.166Z,99.70
2022-10-30T17:08:16.759Z,99.90
2022-10-30T17:11:07.568Z,99.90
2022-10-30T17:13:53.254Z,99.90
2022-10-30T17:16:39.564Z,99.90
2022-10-30T17:19:46.501Z,99.90
2022-10-30T17:22:19.757Z,99.90
2022-10-30T17:25:14.588Z,99.90
2022-10-30T17:27:49.788Z,99.90
2022-10-30T17:30:36.467Z,99.90
2022-10-30T17:33:23.767Z,99.90
2022-10-30T17:35:55.655Z,99.90
2022-10-30T17:38:23.847Z,99.90
2022-10-30T17:41:10.371Z,99.90
2022-10-30T17:43:51.108Z,99.90
2022-10-30T17:46:20.124Z,99.90
2022-10-30T17:48:49.028Z,99.90
2022-10-30T17:51:18.293Z,99.90
2022-10-30T17:54:01.085Z,99.90
2022-10-30T17:56:33.434Z,99.90
2022-10-30T17:59:16.200Z,99.90
2022-10-30T18:01:44.591Z,99.90
2022-10-30T18:04:27.472Z,99.90
2022-10-30T18:06:55.469Z,99.90
2022-10-30T18:09:23.271Z,99.90
2022-10-30T18:11:51.206Z,99.90
2022-10-30T18:14:18.833Z,99.90
2022-10-30T18:16:49.115Z,99.90
2022-10-30T18:19:20.867Z,99.90
2022-10-30T18:21:51.924Z,99.90
2022-10-30T18:24:19.917Z,99.90
2022-10-30T18:27:02.669Z,99.90
2022-10-30T18:29:30.807Z,99.90
2022-10-30T18:31:58.469Z,99.90
2022-10-30T18:34:44.207Z,99.90
2022-10-30T18:37:12.224Z,99.90
2022-10-30T18:39:39.873Z,99.90
2022-10-30T18:42:09.784Z,99.90
2022-10-30T18:44:37.581Z,99.90
2022-10-30T18:47:10.933Z,99.90
2022-10-30T18:49:38.721Z,99.90
2022-10-30T18:52:09.022Z,99.90
2022-10-30T18:54:36.765Z,99.90
2022-10-30T18:57:05.649Z,99.90
2022-10-30T18:59:33.500Z,99.90
2022-10-30T19:02:01.857Z,99.90
2022-10-30T19:04:44.736Z,99.90
2022-10-30T19:07:12.797Z,99.90
2022-10-30T19:09:41.149Z,99.90
2022-10-30T19:12:23.876Z,99.90
2022-10-30T19:14:52.634Z,99.90
2022-10-30T19:17:20.332Z,99.90
2022-10-30T19:20:02.986Z,99.90
2022-10-30T19:22:32.218Z,99.90
2022-10-30T19:25:20.387Z,99.90
2022-10-30T19:28:03.166Z,99.90
2022-10-30T19:30:31.416Z,99.90
2022-10-30T19:32:59.357Z,99.90
2022-10-30T19:35:28.427Z,99.90
2022-10-30T19:37:56.927Z,99.90
2022-10-30T19:40:34.040Z,99.90
2022-10-30T19:43:16.846Z,99.90
2022-10-30T19:45:45.380Z,99.90
2022-10-30T19:48:40.696Z,99.90
2022-10-30T19:51:09.557Z,99.90
2022-10-30T19:53:54.049Z,99.90
2022-10-30T19:56:22.903Z,99.90
2022-10-30T19:59:10.274Z,99.90
2022-10-30T20:01:55.685Z,99.90
2022-10-30T20:04:26.130Z,99.90
2022-10-30T20:06:58.452Z,99.90
2022-10-30T20:09:44.828Z,99.90
2022-10-30T20:12:15.999Z,99.90
2022-10-30T20:14:43.658Z,99.90
2022-10-30T20:17:26.387Z,99.90
2022-10-30T20:20:15.655Z,99.90
2022-10-30T20:22:43.758Z,99.90
2022-10-30T20:25:27.681Z,99.90
2022-10-30T20:28:06.895Z,99.90
2022-10-30T20:30:51.236Z,99.90
2022-10-30T20:33:20.233Z,99.90
2022-10-30T20:35:49.817Z,99.90
2022-10-30T20:38:26.101Z,99.90
2022-10-30T20:40:54.298Z,99.90
2022-10-30T20:43:28.845Z,99.90
2022-10-30T20:46:11.825Z,99.90
2022-10-30T20:48:54.571Z,99.90
2022-10-30T20:51:22.872Z,99.90
2022-10-30T20:53:51.218Z,99.90
2022-10-30T20:56:18.892Z,99.90
2022-10-30T20:58:46.963Z,99.90
2022-10-30T21:01:29.778Z,99.90
2022-10-30T21:04:01.554Z,99.90
2022-10-30T21:06:44.644Z,99.90
2022-10-30T21:09:27.573Z,99.90
2022-10-30T21:11:55.579Z,99.90
2022-10-30T21:14:23.213Z,99.90
2022-10-30T21:16:50.943Z,99.90
2022-10-30T21:19:19.375Z,99.90
2022-10-30T21:21:47.074Z,99.90
2022-10-30T21:24:29.812Z,99.90
2022-10-30T21:26:58.042Z,99.90
2022-10-30T21:29:40.659Z,99.90
2022-10-30T21:32:08.634Z,99.90
2022-10-30T21:34:36.284Z,99.90
2022-10-30T21:37:03.906Z,99.90
2022-10-30T21:39:32.074Z,99.90
2022-10-30T21:41:59.690Z,99.90
2022-10-30T21:44:27.345Z,99.90
2022-10-30T21:46:55.363Z,99.90
2022-10-30T21:49:38.131Z,99.90
2022-10-30T21:52:06.097Z,99.90
2022-10-30T21:54:33.746Z,99.90
2022-10-30T21:57:01.446Z,99.90
2022-10-30T21:59:29.550Z,99.90
2022-10-30T22:01:57.236Z,99.90
2022-10-30T22:04:25.143Z,99.90
2022-10-30T22:06:53.125Z,99.90
2022-10-30T22:09:20.816Z,99.90
2022-10-30T22:11:48.457Z,99.90
2022-10-30T22:14:16.442Z,99.90
2022-10-30T22:16:59.064Z,99.90
2022-10-30T22:19:27.229Z,99.90
2022-10-30T22:21:54.848Z,99.90
2022-10-30T22:24:22.643Z,99.90
2022-10-30T22:26:50.583Z,99.90
2022-10-30T22:29:33.274Z,99.90
2022-10-30T22:32:01.409Z,99.90
2022-10-30T22:34:44.025Z,99.90
2022-10-30T22:37:26.763Z,99.90
2022-10-30T22:40:10.129Z,99.90
2022-10-30T22:42:38.136Z,99.90
2022-10-30T22:45:06.352Z,99.90
2022-10-30T22:47:38.618Z,99.90
2022-10-30T22:50:06.982Z,99.90
2022-10-30T22:52:34.695Z,99.90
2022-10-30T22:55:02.387Z,99.90
2022-10-30T22:57:30.597Z,99.90
2022-10-30T22:59:58.446Z,99.90
2022-10-30T23:02:26.177Z,99.90
2022-10-30T23:04:54.424Z,99.90
2022-10-30T23:07:22.322Z,99.90
2022-10-30T23:09:50.474Z,99.90
2022-10-30T23:12:18.164Z,99.90
2022-10-30T23:14:46.306Z,99.90
2022-10-30T23:17:13.982Z,99.90
2022-10-30T23:19:41.911Z,99.90
2022-10-30T23:22:12.055Z,99.90
2022-10-30T23:24:40.080Z,99.90
2022-10-30T23:27:07.717Z,99.90
2022-10-30T23:29:35.666Z,99.90
2022-10-30T23:32:03.386Z,99.90
2022-10-30T23:34:31.324Z,99.90
2022-10-30T23:37:01.707Z,99.90
2022-10-30T23:39:30.195Z,99.90
2022-10-30T23:41:57.869Z,99.90
2022-10-30T23:44:25.801Z,99.90
2022-10-30T23:46:53.542Z,99.90
2022-10-30T23:49:21.571Z,99.90
2022-10-30T23:51:49.286Z,99.90
2022-10-30T23:54:17.256Z,99.90
2022-10-30T23:56:48.036Z,99.90
2022-10-30T23:59:18.117Z,99.90
